Nearby METAR Reports

 

EGXV - Leconfield (aut), United Kingdom
Distance from station: NW 6mi, 9km
Actualizado: Wed, 17-Jan-2018 11:50am GMT
Céu Limpo
Céu Limpo
 Vento de W
Vento: W 21 mph , 33 km/h, Rajada: 32 mph , 52 km/h
Temperatura: 5°C
Wind Chill: 0°C
Ponto de Orvalho: 1°C
Humidade: 76%
Barómetro: 999 hPa
Clouds: Céu Limpo
Visibility: 6 miles , 10 km
2018/01/17 11:50 EGXV 171150Z AUTO 27018G28KT 9999 NCD 05/01 Q0999
EGNJ - Humberside, United Kingdom
Distance from station: S 16mi, 26km
Actualizado: Wed, 17-Jan-2018 12:20pm GMT
Few Clouds
Few Clouds
 Vento de W
Vento: W 20 mph , 31 km/h
Temperatura: 6°C
Wind Chill: 1°C
Ponto de Orvalho: 1°C
Humidade: 71%
Barómetro: 1001 hPa
Clouds: Few Clouds
Visibility: 6 miles , 10 km
Cloud details: Few Clouds 762 m
2018/01/17 12:20 EGNJ 171220Z 26017KT 9999 FEW025 06/01 Q1001
EGXS - Donna Nook Raf, United Kingdom
Distance from station: SE 30mi, 49km
Actualizado: Wed, 17-Jan-2018 11:50am GMT
Céu Limpo
Céu Limpo
 Vento de WSW
Vento: WSW 15 mph , 24 km/h, Rajada: 26 mph , 43 km/h
Temperatura: 5°C
Wind Chill: 1°C
Ponto de Orvalho: 1°C
Humidade: 76%
Barómetro: 1000 hPa
Resumo: Céu Limpo
Visibility: greater than 7 miles , 10 km
2018/01/17 11:50 EGXS 171150Z 25013G23KT CAVOK 05/01 Q1000 BLU
 
EGCN - Doncaster Sheffi, United Kingdom
Distance from station: SW 35mi, 56km
Actualizado: Wed, 17-Jan-2018 12:20pm GMT
Few Clouds
Few Clouds
 Vento de W
Vento: W 22 mph , 35 km/h, Rajada: 35 mph , 56 km/h
Temperatura: 5°C
Wind Chill: -1°C
Ponto de Orvalho: 2°C
Humidade: 81%
Barómetro: 1003 hPa
Clouds: Few Clouds
Visibility: 6 miles , 10 km
Cloud details: Few Clouds 762 m
2018/01/17 12:20 EGCN 171220Z 26019G30KT 9999 FEW025 05/02 Q1003
EGXP - Scampton Raf, United Kingdom
Distance from station: SSW 36mi, 58km
Actualizado: Wed, 17-Jan-2018 11:50am GMT
Parcialmente nublado
Parcialmente nublado
 Vento de W
Vento: W 22 mph , 35 km/h
Temperatura: 5°C
Wind Chill: -1°C
Ponto de Orvalho: 1°C
Humidade: 76%
Barómetro: 1001 hPa
Clouds: Parcialmente nublado
Visibility: 6 miles , 10 km
Cloud details: Parcialmente nublado 853 m
2018/01/17 11:50 EGXP 171150Z 27019KT 9999 SCT028 05/01 Q1001 BLU
EGXU - Linton-On-Ouse R, United Kingdom
Distance from station: WNW 40mi, 65km
Actualizado: Wed, 17-Jan-2018 11:50am GMT
Few Clouds
Few Clouds
 Vento de W
Vento: W 14 mph , 22 km/h
Temperatura: 6°C
Wind Chill: 2°C
Ponto de Orvalho: 0°C
Humidade: 66%
Barómetro: 1000 hPa
Clouds: Few Clouds
Visibility: 6 miles , 10 km
Cloud details: Few Clouds 457 m
2018/01/17 11:50 EGXU 171150Z 27012KT 9999 FEW015CB 06/00 Q1000 BLU TEMPO 27018G28KT BLU
 
EGXW - Waddington Raf, United Kingdom
Distance from station: S 43mi, 70km
Actualizado: Wed, 17-Jan-2018 11:50am GMT
Few Clouds
Few Clouds
 Vento de W
Vento: W 17 mph , 28 km/h
Temperatura: 6°C
Wind Chill: 2°C
Ponto de Orvalho: 0°C
Humidade: 66%
Barómetro: 1002 hPa
Clouds: Few Clouds
Visibility: 6 miles , 10 km
Cloud details: Few Clouds 762 m
2018/01/17 11:50 EGXW 171150Z 27015KT 9999 FEW025 06/M00 Q1002 BLU NOSIG
EGXC - Coningsby Raf, United Kingdom
Distance from station: S 49mi, 79km
Actualizado: Wed, 17-Jan-2018 11:50am GMT
Few Clouds
Few Clouds
 Vento de W
Vento: W 21 mph , 33 km/h
Temperatura: 6°C
Wind Chill: 1°C
Ponto de Orvalho: 0°C
Humidade: 66%
Barómetro: 1002 hPa
Clouds: Few Clouds
Visibility: 6 miles , 10 km
Cloud details: Few Clouds 732 m
2018/01/17 11:50 EGXC 171150Z 27018KT 9999 FEW024 06/00 Q1002 BLU NOSIG
EGXD - Dishforth Raf, United Kingdom
Distance from station: WNW 49mi, 79km
Actualizado: Mon, 06-Jun-2016 10:50am BST
NOT Current
Céu Limpo
Céu Limpo
 Vento de SSE
Vento: SSE 5 mph , 7 km/h
Temperatura: 18°C
Ponto de Orvalho: 11°C
Humidade: 64%
Barómetro: 1023 hPa
Clouds: Céu Limpo
Visibility: 6 miles , 10 km
2016/06/06 09:50 EGXD 060950Z AUTO 16004KT 9999 // NCD 18/11 Q1023
 
EGXZ - Topcliffe Raf, United Kingdom
Distance from station: WNW 50mi, 81km
Actualizado: Wed, 17-Jan-2018 11:50am GMT
Few Clouds
Few Clouds
 Vento de W
Vento: W 21 mph , 33 km/h, Rajada: 32 mph , 52 km/h
Temperatura: 6°C
Wind Chill: 1°C
Ponto de Orvalho: 0°C
Humidade: 66%
Barómetro: 999 hPa
Clouds: Few Clouds
Visibility: 6 miles , 10 km
Cloud details: Few Clouds 732 m
2018/01/17 11:50 EGXZ 171150Z 26018G28KT 9999 FEW024 06/M00 Q0999 BLU